Time;durP1;ratioP1;P1;durP2;ratioP2;P2;SDS_P1;SDS_P2;PMS_P1;PMS_P2;Temp;Humidity;BMP_temperature;BMP_pressure;BME280_temperature;BME280_humidity;BME280_pressure;Samples;Min_cycle;Max_cycle;Signal;HPM_P1;HPM_P2
2023/03/22 00:00:48;;;;;;;69.65;46.80;;;;;;;9.16;100.00;99984.66;5004886;28;20062;-71
2023/03/22 00:03:14;;;;;;;62.15;45.85;;;;;;;9.21;100.00;99995.13;4993842;28;20058;-71
2023/03/22 00:05:40;;;;;;;68.97;47.75;;;;;;;9.29;100.00;99999.50;5002919;28;20053;-70
2023/03/22 00:08:07;;;;;;;74.65;49.00;;;;;;;8.35;100.00;99859.97;4999056;28;20121;-69
2023/03/22 00:10:34;;;;;;;69.25;49.03;;;;;;;8.45;100.00;99879.19;5002324;28;20058;-70
2023/03/22 00:13:00;;;;;;;78.93;48.20;;;;;;;9.16;100.00;99989.91;5000440;28;20046;-70
2023/03/22 00:15:28;;;;;;;76.85;46.55;;;;;;;8.45;100.00;99881.78;5002103;28;20046;-72
2023/03/22 00:17:55;;;;;;;65.50;47.30;;;;;;;9.11;100.00;99983.81;5001906;28;20435;-69
2023/03/22 00:20:22;;;;;;;66.15;48.80;;;;;;;9.11;100.00;99989.03;5000248;28;20058;-70
2023/03/22 00:22:48;;;;;;;76.00;45.63;;;;;;;9.13;100.00;99968.09;5002205;28;20080;-70
2023/03/22 00:25:14;;;;;;;73.00;47.80;;;;;;;9.04;100.00;99971.59;5009487;28;20049;-70
2023/03/22 00:27:40;;;;;;;64.88;45.80;;;;;;;8.60;100.00;99873.09;5010008;28;20046;-70
2023/03/22 00:30:06;;;;;;;67.43;46.00;;;;;;;8.85;100.00;99927.13;5008240;28;20041;-72
2023/03/22 00:32:36;;;;;;;67.95;47.67;;;;;;;8.36;100.00;99850.44;5001088;28;20045;-73
2023/03/22 00:35:03;;;;;;;74.72;49.83;;;;;;;8.29;100.00;99833.88;5008819;28;20045;-72
2023/03/22 00:37:32;;;;;;;58.63;44.22;;;;;;;8.79;100.00;99921.03;5010602;28;20034;-71
2023/03/22 00:40:00;;;;;;;72.65;49.35;;;;;;;8.95;100.00;99951.53;5009552;28;20498;-71
2023/03/22 00:42:25;;;;;;;71.80;47.88;;;;;;;8.15;100.00;99820.78;5009089;28;20046;-72
2023/03/22 00:44:51;;;;;;;78.05;50.42;;;;;;;8.84;100.00;99951.53;5005274;28;20051;-73
2023/03/22 00:47:16;;;;;;;69.35;43.42;;;;;;;8.17;100.00;99824.28;5005158;28;20061;-71
2023/03/22 00:49:42;;;;;;;69.28;47.08;;;;;;;8.41;100.00;99875.72;5007476;28;20041;-71
2023/03/22 00:52:07;;;;;;;74.20;50.63;;;;;;;8.73;100.00;99929.72;5007856;28;20049;-70
2023/03/22 00:54:33;;;;;;;70.70;47.38;;;;;;;8.72;100.00;99917.53;5003897;28;20070;-72
2023/03/22 00:56:58;;;;;;;78.72;49.10;;;;;;;8.78;100.00;99938.47;5006722;28;20108;-70
2023/03/22 00:59:24;;;;;;;71.30;50.13;;;;;;;8.19;100.00;99837.31;4997754;28;20104;-73
2023/03/22 01:01:49;;;;;;;67.47;47.45;;;;;;;7.94;100.00;99800.75;5001380;28;20025;-70
2023/03/22 01:04:16;;;;;;;65.35;49.20;;;;;;;8.56;100.00;99919.28;5008402;28;20030;-70
2023/03/22 01:06:43;;;;;;;86.32;49.85;;;;;;;8.64;100.00;99938.47;5001621;28;20129;-71
2023/03/22 01:09:13;;;;;;;79.05;47.88;;;;;;;8.50;100.00;99895.78;5009432;28;20061;-69
2023/03/22 01:11:40;;;;;;;88.05;51.42;;;;;;;8.59;100.00;99919.31;5013153;28;20053;-69
2023/03/22 01:14:08;;;;;;;87.90;52.92;;;;;;;7.78;100.00;99775.50;5000565;28;20038;-70
2023/03/22 01:16:35;;;;;;;83.30;53.40;;;;;;;7.98;100.00;99812.06;5013884;28;20053;-71
2023/03/22 01:19:01;;;;;;;86.55;51.42;;;;;;;8.41;100.00;99896.63;5001670;28;20125;-71
2023/03/22 01:21:26;;;;;;;83.47;50.80;;;;;;;8.44;100.00;99903.59;5005728;28;20263;-71
2023/03/22 01:23:52;;;;;;;81.15;54.10;;;;;;;7.76;100.00;99775.47;5005595;28;20046;-72
2023/03/22 01:26:17;;;;;;;77.75;53.40;;;;;;;7.74;100.00;99768.50;5008549;28;20058;-71
2023/03/22 01:28:43;;;;;;;83.43;52.90;;;;;;;7.89;100.00;99793.75;5003573;28;20533;-70
2023/03/22 01:31:08;;;;;;;77.03;52.10;;;;;;;8.55;100.00;99893.16;5009062;28;20457;-70
2023/03/22 01:33:34;;;;;;;92.07;55.97;;;;;;;7.72;100.00;99757.19;5008839;28;20081;-70
2023/03/22 01:35:59;;;;;;;76.35;54.47;;;;;;;8.06;100.00;99812.09;5004915;28;20052;-70
2023/03/22 01:38:25;;;;;;;75.97;55.58;;;;;;;7.93;100.00;99790.28;5005198;28;20538;-69
2023/03/22 01:40:50;;;;;;;84.25;53.90;;;;;;;8.03;100.00;99802.50;5007003;28;20088;-70
2023/03/22 01:43:16;;;;;;;81.63;51.88;;;;;;;8.32;100.00;99844.31;5008730;28;20110;-70
2023/03/22 01:45:45;;;;;;;76.93;49.05;;;;;;;7.91;100.00;99774.59;5004302;28;20050;-70
2023/03/22 01:48:16;;;;;;;67.97;50.63;;;;;;;8.36;100.00;99851.28;5007188;28;20057;-70
2023/03/22 01:50:48;;;;;;;79.55;52.30;;;;;;;8.31;100.00;99841.69;5007718;28;20056;-70
2023/03/22 01:53:17;;;;;;;78.25;52.88;;;;;;;8.39;100.00;99879.16;5001809;28;20093;-71
2023/03/22 01:55:44;;;;;;;70.57;47.60;;;;;;;7.77;100.00;99743.28;4999239;28;20045;-70
2023/03/22 01:58:10;;;;;;;71.60;47.83;;;;;;;8.44;100.00;99854.78;5001979;28;20045;-71
2023/03/22 02:00:36;;;;;;;81.22;56.58;;;;;;;7.18;100.00;99637.94;5002592;28;20041;-72
2023/03/22 02:03:01;;;;;;;77.47;52.05;;;;;;;8.47;100.00;99872.22;4998060;28;20486;-70
2023/03/22 02:05:28;;;;;;;85.90;53.45;;;;;;;7.69;100.00;99741.53;5007754;28;20485;-70
2023/03/22 02:07:54;;;;;;;84.97;50.97;;;;;;;8.50;100.00;99881.78;5003946;28;20022;-70
2023/03/22 02:10:25;;;;;;;80.35;53.50;;;;;;;8.06;100.00;99814.69;5001028;28;20034;-73
2023/03/22 02:13:22;;;;;;;70.38;49.58;;;;;;;8.41;100.00;99896.63;4996720;28;20749;-72
2023/03/22 02:16:06;;;;;;;72.22;49.00;;;;;;;8.39;100.00;99892.25;4987042;28;20060;-70
2023/03/22 02:18:51;;;;;;;80.63;52.65;;;;;;;8.42;100.00;99892.25;4999151;28;20069;-71
2023/03/22 02:21:48;;;;;;;76.95;51.97;;;;;;;8.48;100.00;99889.66;5004813;28;20137;-71
2023/03/22 02:24:29;;;;;;;74.57;50.50;;;;;;;8.50;100.00;99910.56;4998491;28;20050;-71
2023/03/22 02:27:07;;;;;;;78.45;49.20;;;;;;;8.44;100.00;99899.22;5006579;28;20129;-71
2023/03/22 02:29:54;;;;;;;75.32;50.92;;;;;;;8.46;100.00;99901.84;5007666;28;20049;-70
2023/03/22 02:32:47;;;;;;;80.72;48.97;;;;;;;8.49;100.00;99888.78;5007750;28;20056;-71
2023/03/22 02:35:37;;;;;;;81.63;49.42;;;;;;;8.63;100.00;99899.25;5006527;28;20126;-71
2023/03/22 02:38:12;;;;;;;71.53;48.83;;;;;;;8.63;100.00;99904.47;5001786;28;20077;-71
2023/03/22 02:40:56;;;;;;;79.15;53.40;;;;;;;8.54;100.00;99907.94;5007005;28;20793;-71
2023/03/22 02:43:37;;;;;;;80.32;50.03;;;;;;;7.89;100.00;99804.22;5004650;28;20046;-72
2023/03/22 02:46:10;;;;;;;67.57;45.47;;;;;;;7.61;100.00;99752.84;5007294;28;20041;-72
2023/03/22 02:48:43;;;;;;;80.88;49.55;;;;;;;8.48;100.00;99922.78;5006688;28;20056;-70
2023/03/22 02:51:34;;;;;;;65.00;46.67;;;;;;;7.86;100.00;99786.78;5003522;28;20039;-71
2023/03/22 02:54:08;;;;;;;66.20;46.83;;;;;;;8.72;100.00;99929.75;5004338;28;20513;-74
2023/03/22 02:56:43;;;;;;;63.50;43.85;;;;;;;8.72;100.00;99873.06;5003040;28;20084;-71
2023/03/22 02:59:11;;;;;;;59.95;43.10;;;;;;;8.79;100.00;99902.72;5000647;28;20057;-71
2023/03/22 03:01:48;;;;;;;67.20;46.88;;;;;;;8.00;100.00;99811.19;5003537;28;20034;-71
2023/03/22 03:04:18;;;;;;;69.00;47.90;;;;;;;8.31;100.00;99907.03;4997587;28;20053;-70
2023/03/22 03:06:47;;;;;;;68.85;44.70;;;;;;;7.55;100.00;99807.63;4999466;28;20096;-71
2023/03/22 03:09:16;;;;;;;61.58;40.15;;;;;;;7.49;100.00;99775.44;5005656;28;20390;-71
2023/03/22 03:11:48;;;;;;;69.63;45.30;;;;;;;8.28;100.00;99910.50;4996996;28;20050;-70
2023/03/22 03:14:26;;;;;;;71.13;45.88;;;;;;;7.54;100.00;99803.31;4993392;28;20050;-71
2023/03/22 03:17:07;;;;;;;63.10;43.40;;;;;;;8.12;100.00;99895.69;4998908;28;20026;-73
2023/03/22 03:19:50;;;;;;;64.63;44.08;;;;;;;7.91;100.00;99863.41;4994380;28;20136;-72
2023/03/22 03:22:47;;;;;;;65.63;42.38;;;;;;;8.02;100.00;99898.28;4991989;28;20069;-70
2023/03/22 03:25:44;;;;;;;70.18;44.50;;;;;;;7.89;100.00;99891.31;5006747;28;20054;-71
2023/03/22 03:28:29;;;;;;;62.22;43.45;;;;;;;7.34;100.00;99800.63;5003959;28;20042;-71
2023/03/22 03:31:17;;;;;;;71.00;44.83;;;;;;;7.90;100.00;99887.81;5005212;28;20149;-71
2023/03/22 03:33:57;;;;;;;62.97;44.47;;;;;;;7.86;100.00;99878.22;4988462;28;20052;-72
2023/03/22 03:36:25;;;;;;;74.25;47.30;;;;;;;7.77;100.00;99881.69;4995695;28;20145;-71
2023/03/22 03:38:54;;;;;;;78.97;49.85;;;;;;;7.83;100.00;99881.69;5005396;28;20099;-71
2023/03/22 03:41:25;;;;;;;70.78;46.42;;;;;;;7.14;100.00;99763.16;5006702;28;20034;-70
2023/03/22 03:43:53;;;;;;;61.95;44.83;;;;;;;7.29;100.00;99784.09;4999993;28;20795;-71
2023/03/22 03:46:19;;;;;;;66.43;46.72;;;;;;;7.84;100.00;99872.13;5010904;28;20109;-71
2023/03/22 03:48:49;;;;;;;78.80;50.75;;;;;;;7.90;100.00;99879.97;5002488;28;20766;-70
2023/03/22 03:51:15;;;;;;;70.30;47.53;;;;;;;7.21;100.00;99771.88;5010902;28;20050;-72
2023/03/22 03:53:40;;;;;;;68.63;48.45;;;;;;;6.96;100.00;99735.28;5009789;28;20117;-71
2023/03/22 03:56:06;;;;;;;77.28;50.13;;;;;;;7.78;100.00;99865.16;5009416;28;20442;-71
2023/03/22 03:58:32;;;;;;;75.63;45.65;;;;;;;7.95;100.00;99882.59;5005115;28;20030;-71
2023/03/22 04:00:57;;;;;;;79.65;50.05;;;;;;;7.23;100.00;99780.56;4999736;28;20445;-72
2023/03/22 04:03:23;;;;;;;67.82;50.55;;;;;;;7.29;100.00;99797.13;5001154;28;20045;-70
2023/03/22 04:05:49;;;;;;;72.63;47.25;;;;;;;7.72;100.00;99883.41;5008514;28;20049;-71
2023/03/22 04:08:14;;;;;;;78.25;48.70;;;;;;;7.73;100.00;99893.00;5006861;28;20049;-72
2023/03/22 04:10:40;;;;;;;76.43;49.90;;;;;;;7.08;100.00;99791.84;5002380;28;20022;-70
2023/03/22 04:13:05;;;;;;;75.57;49.05;;;;;;;7.63;100.00;99899.03;5005556;28;20473;-70
2023/03/22 04:15:31;;;;;;;72.82;47.67;;;;;;;7.52;100.00;99887.72;4996043;28;20065;-70
2023/03/22 04:17:58;;;;;;;78.30;47.88;;;;;;;7.27;100.00;99829.31;4997419;28;20061;-70
2023/03/22 04:20:25;;;;;;;51.40;26.98;;;;;;;7.39;100.00;99850.22;5004090;28;20047;-70
2023/03/22 04:22:51;;;;;;;72.03;45.72;;;;;;;7.58;100.00;99904.25;5009080;28;20367;-70
2023/03/22 04:25:17;;;;;;;72.50;45.33;;;;;;;6.81;100.00;99763.88;5010802;28;20049;-71
2023/03/22 04:27:45;;;;;;;74.63;49.17;;;;;;;7.11;100.00;99810.09;5006349;28;20045;-71
2023/03/22 04:30:18;;;;;;;75.97;48.78;;;;;;;6.90;100.00;99783.06;5001127;28;20514;-70
2023/03/22 04:32:46;;;;;;;82.40;49.65;;;;;;;7.67;100.00;99937.34;5005828;28;20038;-71
2023/03/22 04:35:12;;;;;;;72.25;48.20;;;;;;;6.99;100.00;99810.91;5007076;28;20060;-71
2023/03/22 04:37:37;;;;;;;73.53;46.03;;;;;;;7.40;100.00;99891.13;5009632;28;20038;-71
2023/03/22 04:40:07;;;;;;;75.40;47.75;;;;;;;7.24;100.00;99851.03;5005627;28;20034;-71
2023/03/22 04:42:33;;;;;;;76.88;47.22;;;;;;;7.51;100.00;99910.31;5007179;28;20046;-71
2023/03/22 04:44:59;;;;;;;69.22;47.25;;;;;;;6.84;100.00;99800.44;5001647;28;20038;-72
2023/03/22 04:47:24;;;;;;;70.53;46.22;;;;;;;7.55;100.00;99921.66;5008340;28;20084;-70
2023/03/22 04:49:50;;;;;;;74.78;48.25;;;;;;;7.21;100.00;99866.69;5006147;28;20040;-70
2023/03/22 04:52:16;;;;;;;67.75;45.92;;;;;;;7.57;100.00;99936.44;4998640;28;20042;-70
2023/03/22 04:54:41;;;;;;;63.50;43.40;;;;;;;6.70;100.00;99814.25;5007737;28;20410;-70
2023/03/22 04:57:07;;;;;;;71.07;45.13;;;;;;;7.52;100.00;99919.91;5002685;28;20410;-71
2023/03/22 04:59:32;;;;;;;66.90;45.00;;;;;;;7.43;100.00;99911.16;4998254;28;20070;-71
2023/03/22 05:01:58;;;;;;;65.30;44.15;;;;;;;7.29;100.00;99893.69;5007821;28;20101;-71
2023/03/22 05:04:26;;;;;;;61.13;44.42;;;;;;;7.15;100.00;99864.03;4997579;28;20049;-71
2023/03/22 05:06:52;;;;;;;58.65;41.35;;;;;;;7.42;100.00;99910.25;5005669;28;20038;-71
2023/03/22 05:09:18;;;;;;;40.00;22.10;;;;;;;7.33;100.00;99924.16;5005142;28;20115;-72
2023/03/22 05:11:43;;;;;;;66.82;44.40;;;;;;;6.80;100.00;99827.34;5006216;28;20050;-71
2023/03/22 05:14:09;;;;;;;72.22;45.47;;;;;;;7.56;100.00;99972.97;5004380;28;20061;-70
2023/03/22 05:16:35;;;;;;;76.78;44.88;;;;;;;7.61;100.00;99972.16;5011714;28;20057;-69
2023/03/22 05:19:01;;;;;;;69.38;44.67;;;;;;;6.82;100.00;99847.34;5015789;28;20137;-70
2023/03/22 05:21:28;;;;;;;68.43;45.42;;;;;;;6.73;100.00;99839.47;5003317;28;20117;-73
2023/03/22 05:23:57;;;;;;;68.25;46.67;;;;;;;6.77;100.00;99838.63;5005654;28;20181;-71
2023/03/22 05:26:25;;;;;;;46.28;24.08;;;;;;;6.75;100.00;99827.31;4998979;28;20055;-71
2023/03/22 05:28:51;;;;;;;59.83;39.17;;;;;;;6.90;100.00;99842.16;5007619;28;20397;-70
2023/03/22 05:31:20;;;;;;;74.13;44.47;;;;;;;7.47;100.00;99967.72;5007740;28;20069;-72
2023/03/22 05:33:46;;;;;;;57.67;41.85;;;;;;;6.97;100.00;99870.91;5004003;28;20034;-70
2023/03/22 05:36:12;;;;;;;61.00;41.22;;;;;;;7.49;100.00;99969.50;5003605;28;20041;-70
2023/03/22 05:38:38;;;;;;;58.20;41.63;;;;;;;7.32;100.00;99952.84;5007559;28;20397;-70
2023/03/22 05:41:04;;;;;;;38.30;23.05;;;;;;;6.68;100.00;99852.47;5001206;28;20045;-72
2023/03/22 05:43:29;;;;;;;31.88;21.95;;;;;;;6.75;100.00;99856.88;5008579;28;20097;-70
2023/03/22 05:45:55;;;;;;;70.10;44.67;;;;;;;7.58;100.00;99990.41;5008285;28;20045;-70
2023/03/22 05:48:20;;;;;;;58.95;39.05;;;;;;;7.57;100.00;99998.25;5007128;28;20057;-70
2023/03/22 05:50:46;;;;;;;72.40;41.72;;;;;;;7.47;100.00;99965.09;5007766;28;20488;-71
2023/03/22 05:53:11;;;;;;;67.82;42.03;;;;;;;6.88;100.00;99868.25;5007198;28;20042;-73
2023/03/22 05:55:37;;;;;;;64.68;41.17;;;;;;;7.51;100.00;99978.19;5000287;28;20447;-70
2023/03/22 05:58:03;;;;;;;58.55;38.28;;;;;;;7.70;100.00;100009.59;4999542;28;20053;-71
2023/03/22 06:00:30;;;;;;;60.00;40.45;;;;;;;7.77;100.00;100016.59;4998001;28;20042;-71
2023/03/22 06:03:02;;;;;;;53.67;40.33;;;;;;;7.13;100.00;99897.06;5004377;28;20513;-70
2023/03/22 06:05:28;;;;;;;55.78;40.15;;;;;;;7.53;100.00;99967.75;5003819;28;20859;-72
2023/03/22 06:07:53;;;;;;;61.75;39.65;;;;;;;7.87;100.00;100004.50;4999571;28;20026;-70
2023/03/22 06:10:19;;;;;;;59.08;38.17;;;;;;;7.98;100.00;100016.72;4998287;28;20030;-70
2023/03/22 06:12:44;;;;;;;59.50;40.40;;;;;;;7.16;100.00;99871.00;5000631;28;20048;-70
2023/03/22 06:15:11;;;;;;;49.30;38.03;;;;;;;8.22;100.00;100025.53;5002777;28;20042;-72
2023/03/22 06:17:36;;;;;;;58.03;38.50;;;;;;;8.25;100.00;100015.94;5004327;28;20608;-71
2023/03/22 06:20:10;;;;;;;59.97;38.47;;;;;;;8.24;100.00;100014.22;4999069;28;20046;-71
2023/03/22 06:22:37;;;;;;;57.95;38.85;;;;;;;7.38;100.00;99901.56;4997646;28;20030;-72
2023/03/22 06:25:03;;;;;;;57.25;35.58;;;;;;;8.31;100.00;100030.78;5003146;28;20053;-71
2023/03/22 06:27:29;;;;;;;58.55;36.72;;;;;;;8.26;100.00;100037.72;5007197;28;20128;-70
2023/03/22 06:29:54;;;;;;;58.75;35.42;;;;;;;8.31;100.00;100038.63;5005535;28;20184;-70
2023/03/22 06:32:23;;;;;;;48.28;34.55;;;;;;;8.43;100.00;100038.69;5006431;28;20061;-70
2023/03/22 06:34:55;;;;;;;54.20;36.92;;;;;;;7.87;100.00;99937.44;4997797;28;20085;-70
2023/03/22 06:37:21;;;;;;;59.33;35.25;;;;;;;8.36;100.00;100015.97;4998280;28;20116;-71
2023/03/22 06:39:47;;;;;;;49.42;37.53;;;;;;;7.50;100.00;99912.94;5005108;28;20167;-71
2023/03/22 06:42:12;;;;;;;54.55;37.50;;;;;;;8.19;100.00;100067.31;5003389;28;20050;-70
2023/03/22 06:44:41;;;;;;;56.58;35.63;;;;;;;8.00;100.00;100035.88;5005117;28;20054;-71
2023/03/22 06:47:07;;;;;;;48.92;33.03;;;;;;;7.90;100.00;99960.09;5006609;28;20053;-70
2023/03/22 06:49:33;;;;;;;52.55;36.78;;;;;;;8.09;100.00;100068.16;5004798;28;20078;-70
2023/03/22 06:51:58;;;;;;;50.38;38.58;;;;;;;7.61;100.00;99969.56;4993857;28;20054;-71
2023/03/22 06:54:24;;;;;;;51.15;36.40;;;;;;;8.35;100.00;100070.88;5006099;28;20041;-70
2023/03/22 06:56:49;;;;;;;51.03;39.13;;;;;;;7.96;100.00;100039.34;5003313;28;20140;-71
2023/03/22 06:59:15;;;;;;;51.90;40.10;;;;;;;8.21;100.00;100084.75;5001529;28;20410;-71
2023/03/22 07:01:40;;;;;;;48.83;35.28;;;;;;;7.60;100.00;99946.91;5003456;28;20072;-71
2023/03/22 07:04:06;;;;;;;58.17;37.03;;;;;;;7.44;100.00;99932.03;4996419;28;20037;-69
2023/03/22 07:06:31;;;;;;;54.55;37.85;;;;;;;7.69;100.00;99951.28;4993485;28;20084;-71
2023/03/22 07:08:57;;;;;;;58.85;36.70;;;;;;;7.48;100.00;99944.22;5000649;28;20554;-71
2023/03/22 07:11:24;;;;;;;52.78;37.28;;;;;;;7.52;100.00;99934.69;5006850;28;20115;-70
2023/03/22 07:13:51;;;;;;;57.28;36.50;;;;;;;8.47;100.00;100083.13;4993555;28;20107;-70
2023/03/22 07:16:16;;;;;;;56.45;36.47;;;;;;;7.93;100.00;99981.84;5005475;28;20033;-70
2023/03/22 07:18:42;;;;;;;78.53;47.38;;;;;;;8.55;100.00;100090.13;4995560;28;20497;-70
2023/03/22 07:21:07;;;;;;;51.92;35.45;;;;;;;8.70;100.00;100094.53;5004029;28;20042;-70
2023/03/22 07:23:33;;;;;;;54.72;38.85;;;;;;;8.75;100.00;100074.47;5002465;28;20053;-71
2023/03/22 07:25:59;;;;;;;47.97;35.50;;;;;;;9.09;100.00;100093.72;5002079;28;20029;-71
2023/03/22 07:28:25;;;;;;;54.88;38.55;;;;;;;8.84;100.00;100099.78;5006589;28;20072;-70
2023/03/22 07:31:03;;;;;;;64.43;39.42;;;;;;;9.05;100.00;100099.81;5002966;28;20490;-71
2023/03/22 07:33:28;;;;;;;51.88;36.67;;;;;;;8.38;100.00;99976.75;5003007;28;20064;-70
2023/03/22 07:35:54;;;;;;;42.17;34.70;;;;;;;8.05;100.00;99967.97;5002995;28;20100;-70
2023/03/22 07:38:20;;;;;;;48.35;36.53;;;;;;;8.87;100.00;100111.16;5005566;28;20065;-71
2023/03/22 07:40:45;;;;;;;58.58;34.50;;;;;;;8.46;100.00;99985.53;5004323;28;20037;-70
2023/03/22 07:43:12;;;;;;;54.50;37.10;;;;;;;8.88;100.00;100031.78;5007142;28;20033;-70
2023/03/22 07:45:39;;;;;;;53.08;34.13;;;;;;;9.00;100.00;100096.34;5002801;28;20845;-70
2023/03/22 07:48:05;;;;;;;51.15;33.83;;;;;;;9.36;100.00;100127.75;4997927;28;20077;-71
2023/03/22 07:50:30;;;;;;;49.22;34.38;;;;;;;8.68;100.00;100071.84;5005642;28;20402;-70
2023/03/22 07:52:56;;;;;;;49.33;36.33;;;;;;;8.36;100.00;99983.75;5001369;28;20406;-70
2023/03/22 07:55:22;;;;;;;48.45;34.80;;;;;;;9.36;100.00;100138.25;5004503;28;20038;-70
2023/03/22 07:57:47;;;;;;;52.55;34.15;;;;;;;8.78;100.00;100036.97;4979525;28;20128;-72
2023/03/22 08:00:14;;;;;;;53.20;33.83;;;;;;;9.16;100.00;100092.00;4992862;28;20050;-72
2023/03/22 08:02:40;;;;;;;48.80;33.95;;;;;;;8.78;100.00;99997.75;4995777;28;20192;-70
2023/03/22 08:05:06;;;;;;;39.95;31.25;;;;;;;8.76;100.00;100010.84;5002727;28;20042;-70
2023/03/22 08:07:31;;;;;;;41.30;31.10;;;;;;;9.14;100.00;100171.38;5002513;28;20029;-70
2023/03/22 08:09:57;;;;;;;44.83;31.13;;;;;;;9.25;100.00;100153.97;5001976;28;20046;-71
2023/03/22 08:12:22;;;;;;;42.80;31.80;;;;;;;9.33;100.00;100146.97;5003291;28;20046;-72
2023/03/22 08:14:49;;;;;;;39.85;29.27;;;;;;;9.51;100.00;100165.31;4992549;28;20084;-70
2023/03/22 08:17:17;;;;;;;57.67;32.67;;;;;;;8.87;100.00;100074.53;4998390;28;20048;-70
2023/03/22 08:19:42;;;;;;;45.58;33.92;;;;;;;9.11;100.00;100190.59;5002655;28;20495;-69
2023/03/22 08:22:08;;;;;;;52.20;33.90;;;;;;;9.42;100.00;100201.09;5000639;28;20070;-71
2023/03/22 08:24:34;;;;;;;41.55;30.35;;;;;;;8.81;100.00;100064.03;5004686;28;20076;-71
2023/03/22 08:27:00;;;;;;;40.50;33.13;;;;;;;9.64;100.00;100197.59;5004154;28;20049;-71
2023/03/22 08:29:26;;;;;;;49.58;32.63;;;;;;;9.03;100.00;100075.38;4997383;28;20046;-70
2023/03/22 08:31:52;;;;;;;44.92;30.90;;;;;;;9.71;100.00;100199.34;5002397;28;20030;-72
2023/03/22 08:34:17;;;;;;;45.60;34.50;;;;;;;9.79;100.00;100211.63;5006272;28;20041;-69
2023/03/22 08:36:43;;;;;;;41.58;32.50;;;;;;;9.90;100.00;100207.22;5008792;28;20041;-71
2023/03/22 08:39:09;;;;;;;48.17;36.38;;;;;;;9.69;100.00;100177.56;5003900;28;20054;-72
2023/03/22 08:41:34;;;;;;;44.17;31.55;;;;;;;9.78;100.00;100208.09;5007968;28;20037;-69
2023/03/22 08:44:00;;;;;;;46.33;33.45;;;;;;;9.92;100.00;100235.16;4998990;28;20046;-70
2023/03/22 08:46:26;;;;;;;44.83;33.50;;;;;;;9.92;100.00;100232.53;5007495;28;20619;-69
2023/03/22 08:48:52;;;;;;;50.05;34.22;;;;;;;9.46;100.00;100138.25;5002351;28;20050;-70
2023/03/22 08:51:20;;;;;;;43.25;32.05;;;;;;;10.00;100.00;100239.56;5008314;28;20515;-71
2023/03/22 08:53:46;;;;;;;44.30;35.40;;;;;;;9.79;100.00;100215.09;5004613;28;20073;-71
2023/03/22 08:56:15;;;;;;;51.78;35.28;;;;;;;9.48;100.00;100141.75;4996168;28;20046;-71
2023/03/22 08:58:45;;;;;;;45.42;32.17;;;;;;;9.38;100.00;100124.28;4977733;28;20034;-72
2023/03/22 09:01:11;;;;;;;39.00;32.58;;;;;;;10.09;100.00;100261.41;4989505;28;20038;-69
2023/03/22 09:03:37;;;;;;;42.10;32.63;;;;;;;10.02;100.00;100270.13;4986266;28;20046;-72
2023/03/22 09:06:02;;;;;;;52.95;34.33;;;;;;;9.60;100.00;100195.00;4997995;28;20041;-71
2023/03/22 09:08:28;;;;;;;42.10;32.72;;;;;;;9.48;100.00;100174.91;5001375;28;20490;-71
2023/03/22 09:10:54;;;;;;;43.20;34.60;;;;;;;9.38;100.00;100155.69;5000770;28;20053;-71
2023/03/22 09:13:20;;;;;;;46.75;34.17;;;;;;;9.90;100.00;100289.38;5002377;28;20041;-71
2023/03/22 09:15:46;;;;;;;55.70;36.67;;;;;;;9.46;100.00;100164.44;5003907;28;20092;-70
2023/03/22 09:18:12;;;;;;;46.35;36.13;;;;;;;9.60;100.00;100184.50;4997866;28;20030;-72
2023/03/22 09:20:38;;;;;;;54.47;38.38;;;;;;;9.66;100.00;100179.28;5002714;28;20121;-70
2023/03/22 09:23:04;;;;;;;46.05;37.03;;;;;;;9.78;100.00;100189.75;5005089;28;20046;-70
2023/03/22 09:25:30;;;;;;;84.75;41.95;;;;;;;9.83;100.00;100190.66;5001015;28;20038;-72
2023/03/22 09:27:55;;;;;;;56.50;38.03;;;;;;;9.85;100.00;100193.25;5005481;28;20045;-71
2023/03/22 09:30:21;;;;;;;56.65;36.13;;;;;;;9.99;100.00;100222.94;5004537;28;20046;-72
2023/03/22 09:32:46;;;;;;;45.35;36.03;;;;;;;10.01;100.00;100222.94;5007808;28;20045;-70
2023/03/22 09:35:12;;;;;;;48.22;36.63;;;;;;;10.21;100.00;100259.63;5005355;28;20420;-71
2023/03/22 09:37:38;;;;;;;55.92;36.70;;;;;;;9.94;100.00;100238.66;5007939;28;20049;-69
2023/03/22 09:40:05;;;;;;;47.30;35.00;;;;;;;9.87;100.00;100213.34;4999730;28;20057;-71
2023/03/22 09:42:48;;;;;;;50.60;37.53;;;;;;;10.10;100.00;100348.78;5004640;28;20487;-69
2023/03/22 09:45:17;;;;;;;57.57;40.50;;;;;;;10.25;100.00;100332.16;5004592;28;20117;-70
2023/03/22 09:47:48;;;;;;;50.45;37.38;;;;;;;10.50;100.00;100320.81;5003685;28;20490;-70
2023/03/22 09:50:19;;;;;;;76.63;43.42;;;;;;;9.95;100.00;100208.13;5003427;28;20104;-70
2023/03/22 09:52:46;;;;;;;51.42;39.25;;;;;;;10.20;100.00;100250.03;5003847;28;20030;-72
2023/03/22 09:55:29;;;;;;;50.35;35.05;;;;;;;9.79;100.00;100248.28;5006005;28;20120;-71
2023/03/22 09:58:06;;;;;;;53.42;39.15;;;;;;;9.93;100.00;100315.56;5000192;28;20050;-70
2023/03/22 10:00:53;;;;;;;59.90;41.33;;;;;;;10.10;100.00;100343.53;5000519;28;20650;-71
2023/03/22 10:03:18;;;;;;;59.08;41.88;;;;;;;9.97;100.00;100349.63;5002127;28;20505;-71
2023/03/22 10:06:02;;;;;;;56.30;41.33;;;;;;;10.25;100.00;100351.41;5004063;28;20092;-70
2023/03/22 10:08:45;;;;;;;68.05;43.85;;;;;;;10.49;100.00;100347.94;5001154;28;20068;-71
2023/03/22 10:11:40;;;;;;;64.55;41.13;;;;;;;10.98;100.00;100340.00;5000972;28;20046;-71
2023/03/22 10:14:24;;;;;;;111.50;50.35;;;;;;;10.89;100.00;100358.38;5000378;28;20373;-71
2023/03/22 10:16:53;;;;;;;95.63;50.47;;;;;;;10.07;100.00;100267.53;4997622;28;20037;-71
2023/03/22 10:19:22;;;;;;;74.68;45.60;;;;;;;10.43;100.00;100294.63;5002612;28;20100;-70
2023/03/22 10:21:51;;;;;;;72.85;42.25;;;;;;;9.66;100.00;100133.00;4995287;28;20070;-72
2023/03/22 10:24:27;;;;;;;58.30;40.95;;;;;;;11.02;100.00;100374.97;5004179;28;20193;-71
2023/03/22 10:26:52;;;;;;;59.05;38.50;;;;;;;10.99;100.00;100388.13;4998428;28;20034;-72
2023/03/22 10:29:18;;;;;;;60.03;41.03;;;;;;;11.09;100.00;100387.19;5004313;28;20057;-69
2023/03/22 10:31:44;;;;;;;55.72;41.33;;;;;;;11.00;100.00;100387.22;5002908;28;20474;-72
2023/03/22 10:34:22;;;;;;;61.55;41.08;;;;;;;10.76;100.00;100364.53;5004987;28;20018;-72
2023/03/22 10:36:50;;;;;;;60.95;41.35;;;;;;;10.42;100.00;100299.00;5000795;28;20057;-69
2023/03/22 10:39:25;;;;;;;66.18;42.60;;;;;;;11.04;100.00;100388.09;5005019;28;20450;-71
2023/03/22 10:41:54;;;;;;;79.95;39.55;;;;;;;10.18;100.00;100226.41;5000407;28;20053;-70
2023/03/22 10:44:23;;;;;;;58.00;39.53;;;;;;;10.74;100.00;100390.75;4993707;28;20039;-70
2023/03/22 10:46:51;;;;;;;53.67;41.45;;;;;;;10.85;100.00;100396.00;5005026;28;20026;-70
2023/03/22 10:49:34;;;;;;;52.13;41.15;;;;;;;9.65;100.00;100259.63;5006521;28;20037;-70
2023/03/22 10:52:19;;;;;;;52.15;38.58;;;;;;;9.69;100.00;100237.81;5004162;28;20062;-70
2023/03/22 10:54:45;;;;;;;52.55;42.28;;;;;;;10.37;100.00;100361.03;5000839;28;20054;-71
2023/03/22 10:57:10;;;;;;;62.47;44.47;;;;;;;10.18;100.00;100249.13;4995170;28;20052;-70
2023/03/22 10:59:50;;;;;;;64.75;43.08;;;;;;;11.15;100.00;100365.31;5005060;28;20046;-70
2023/03/22 11:02:16;;;;;;;67.20;44.03;;;;;;;10.49;100.00;100244.78;4997633;28;20100;-71
2023/03/22 11:04:47;;;;;;;69.68;43.17;;;;;;;10.33;100.00;100246.53;5002270;28;20033;-70
2023/03/22 11:07:27;;;;;;;50.65;40.05;;;;;;;11.00;100.00;100368.84;4998415;28;20133;-71
2023/03/22 11:10:26;;;;;;;72.15;44.47;;;;;;;11.10;100.00;100375.84;5005100;28;20402;-70
2023/03/22 11:13:09;;;;;;;56.35;40.80;;;;;;;11.14;100.00;100355.69;4989148;28;20046;-69
2023/03/22 11:15:39;;;;;;;53.40;37.65;;;;;;;10.43;100.00;100269.25;5006180;28;20125;-75
2023/03/22 11:18:10;;;;;;;63.28;41.70;;;;;;;11.15;100.00;100381.94;4992917;28;20053;-72
2023/03/22 11:20:40;;;;;;;137.50;55.85;;;;;;;10.50;100.00;100276.22;5000871;28;20049;-71